Desert Oasis — SVBM8 — position and weather

sailwx.info

Track history (hours):
 
Tides and Currents Weather Stations Pressure Air Temp Water Temp Dewpoint Dewpoint Depression Visibility Wind Speed Wind Dir Waves Ship Positions

Desert Oasis

Last reported at 2017-Sep-15 15:26 UTC. Time now 2017-Sep-20 22:09 UTC.
Position S 34°24' E 018°20'.

Length 193 m; draft 11.6 m.

Type: Cargo ship. MMSI: 241183000.

Date/timePositionNaut miles runAvg speedWind from/ knotsBaromVisibWave heightAir tempDewpointWater temp
2017-Sep-15 15:26S 34°24' E 018°20'  
2017-Sep-13 10:13S 31°19' E 030°14'315.8
2017-Sep-13 10:00S 31°17' E 030°17'815.9
2017-Sep-13 09:30S 31°11' E 030°23'815.9
2017-Sep-13 09:00S 31°05' E 030°29'915.8
2017-Sep-13 08:24S 30°58' E 030°36'716.0
2017-Sep-13 07:58S 30°52' E 030°40'716.1
2017-Sep-13 07:31S 30°45' E 030°44'816.1
2017-Sep-13 07:01S 30°38' E 030°48'816.0
2017-Sep-13 06:31S 30°31' E 030°53'815.5
2017-Sep-13 06:01S 30°24' E 030°57'714.5
2017-Sep-13 05:31S 30°17' E 031°00'713.6
2017-Sep-13 05:00S 30°11' E 031°04'612.6
2017-Sep-13 04:30S 30°06' E 031°08'612.0
2017-Sep-13 04:00S 30°00' E 031°11'612.0
2017-Sep-13 03:30S 29°54' E 031°10'611.3
2017-Sep-13 03:00S 29°50' E 031°06'4 7.5
2017-Sep-13 02:30S 29°53' E 031°02'0 0.8
2017-Sep-13 01:58S 29°52' E 031°02'0 0.0
2017-Sep-13 01:25S 29°52' E 031°02'0 0.0
2017-Sep-13 00:58S 29°52' E 031°02'0 0.0
2017-Sep-13 00:28S 29°52' E 031°02'0 0.0
2017-Sep-12 23:58S 29°52' E 031°02'0 0.0
2017-Sep-12 23:28S 29°52' E 031°02'0 0.0
2017-Sep-12 22:58S 29°52' E 031°02'0 0.0
2017-Sep-12 22:28S 29°52' E 031°02'0 0.0
2017-Sep-12 21:58S 29°52' E 031°02'0 0.0
2017-Sep-12 21:28S 29°52' E 031°02'0 0.0
2017-Sep-12 20:58S 29°52' E 031°02'0 0.0
2017-Sep-12 20:28S 29°52' E 031°02'0 0.0
2017-Sep-12 19:58S 29°52' E 031°02'0 0.0
2017-Sep-12 19:28S 29°52' E 031°02'0 0.0
2017-Sep-12 18:58S 29°52' E 031°02'0 0.0
2017-Sep-12 18:28S 29°52' E 031°02'0 0.0
2017-Sep-12 17:58S 29°52' E 031°02'0 0.0
2017-Sep-12 17:31S 29°52' E 031°02'0 0.0
2017-Sep-12 16:58S 29°52' E 031°02'0 0.0
2017-Sep-12 16:28S 29°52' E 031°02'0 0.0
2017-Sep-12 15:58S 29°52' E 031°02'0 0.0
2017-Sep-12 15:28S 29°52' E 031°02'0 0.0
2017-Sep-12 14:58S 29°52' E 031°02'0 0.0
2017-Sep-12 14:31S 29°52' E 031°02'0 0.0
2017-Sep-12 13:52S 29°52' E 031°02'0 0.0
2017-Sep-12 13:28S 29°52' E 031°02'0 0.0
2017-Sep-12 12:58S 29°52' E 031°02'0 0.0
2017-Sep-12 12:28S 29°52' E 031°02'0 0.0
2017-Sep-12 12:01S 29°52' E 031°02'0 0.0
2017-Sep-12 11:28S 29°52' E 031°02'0 0.1
2017-Sep-12 11:00S 29°52' E 031°02'2 5.0
2017-Sep-12 10:31S 29°51' E 031°04'2 3.9
2017-Sep-12 10:00S 29°49' E 031°06'5 9.3
2017-Sep-12 09:30S 29°49' E 031°11'612.4
2017-Sep-12 09:00S 29°50' E 031°18'612.9
2017-Sep-12 08:31S 29°50' E 031°25'713.5
2017-Sep-12 08:00S 29°51' E 031°33'714.5
2017-Sep-12 07:30S 29°51' E 031°42'714.8
2017-Sep-12 07:00S 29°51' E 031°50'714.7
2017-Sep-12 06:30S 29°51' E 031°59'714.3
2017-Sep-12 06:00S 29°50' E 032°07'713.7
2017-Sep-12 05:30S 29°50' E 032°15'713.5
2017-Sep-12 04:59S 29°50' E 032°23'613.1
2017-Sep-12 04:30S 29°50' E 032°30'613.1
2017-Sep-12 04:00S 29°50' E 032°38'712.8
2017-Sep-12 03:27S 29°50' E 032°46'511.9
2017-Sep-12 03:00S 29°50' E 032°52'712.8
2017-Sep-12 02:26S 29°51' E 033°00'612.5
2017-Sep-12 01:54S 29°50' E 033°08'1712.1
2017-Sep-12 00:29S 29°51' E 033°28'611.9
2017-Sep-11 23:58S 29°51' E 033°35'511.9
2017-Sep-11 23:30S 29°50' E 033°41'812.0
2017-Sep-11 22:50S 29°50' E 033°50'3213.2
2017-Sep-11 20:26S 29°50' E 034°27'913.2
2017-Sep-11 19:43S 29°51' E 034°38'  
Track history (hours):
 
Tides and Currents Weather Stations Pressure Air Temp Water Temp Dewpoint Dewpoint Depression Visibility Wind Speed Wind Dir Waves Ship Positions

Desert Oasis

Last reported at 2017-Sep-15 15:26 UTC. Time now 2017-Sep-20 22:09 UTC.
Position S 34°24' E 018°20'.

Length 193 m; draft 11.6 m.

Type: Cargo ship. MMSI: 241183000.

Date/timePositionNaut miles runAvg speedWind from/ knotsBaromVisibWave heightAir tempDewpointWater temp
2017-Sep-15 15:26S 34°24' E 018°20'  
2017-Sep-13 10:13S 31°19' E 030°14'315.8
2017-Sep-13 10:00S 31°17' E 030°17'815.9
2017-Sep-13 09:30S 31°11' E 030°23'815.9
2017-Sep-13 09:00S 31°05' E 030°29'915.8
2017-Sep-13 08:24S 30°58' E 030°36'716.0
2017-Sep-13 07:58S 30°52' E 030°40'716.1
2017-Sep-13 07:31S 30°45' E 030°44'816.1
2017-Sep-13 07:01S 30°38' E 030°48'816.0
2017-Sep-13 06:31S 30°31' E 030°53'815.5
2017-Sep-13 06:01S 30°24' E 030°57'714.5
2017-Sep-13 05:31S 30°17' E 031°00'713.6
2017-Sep-13 05:00S 30°11' E 031°04'612.6
2017-Sep-13 04:30S 30°06' E 031°08'612.0
2017-Sep-13 04:00S 30°00' E 031°11'612.0
2017-Sep-13 03:30S 29°54' E 031°10'611.3
2017-Sep-13 03:00S 29°50' E 031°06'4 7.5
2017-Sep-13 02:30S 29°53' E 031°02'0 0.8
2017-Sep-13 01:58S 29°52' E 031°02'0 0.0
2017-Sep-13 01:25S 29°52' E 031°02'0 0.0
2017-Sep-13 00:58S 29°52' E 031°02'0 0.0
2017-Sep-13 00:28S 29°52' E 031°02'0 0.0
2017-Sep-12 23:58S 29°52' E 031°02'0 0.0
2017-Sep-12 23:28S 29°52' E 031°02'0 0.0
2017-Sep-12 22:58S 29°52' E 031°02'0 0.0
2017-Sep-12 22:28S 29°52' E 031°02'0 0.0
2017-Sep-12 21:58S 29°52' E 031°02'0 0.0
2017-Sep-12 21:28S 29°52' E 031°02'0 0.0
2017-Sep-12 20:58S 29°52' E 031°02'0 0.0
2017-Sep-12 20:28S 29°52' E 031°02'0 0.0
2017-Sep-12 19:58S 29°52' E 031°02'0 0.0
2017-Sep-12 19:28S 29°52' E 031°02'0 0.0
2017-Sep-12 18:58S 29°52' E 031°02'0 0.0
2017-Sep-12 18:28S 29°52' E 031°02'0 0.0
2017-Sep-12 17:58S 29°52' E 031°02'0 0.0
2017-Sep-12 17:31S 29°52' E 031°02'0 0.0
2017-Sep-12 16:58S 29°52' E 031°02'0 0.0
2017-Sep-12 16:28S 29°52' E 031°02'0 0.0
2017-Sep-12 15:58S 29°52' E 031°02'0 0.0
2017-Sep-12 15:28S 29°52' E 031°02'0 0.0
2017-Sep-12 14:58S 29°52' E 031°02'0 0.0
2017-Sep-12 14:31S 29°52' E 031°02'0 0.0
2017-Sep-12 13:52S 29°52' E 031°02'0 0.0
2017-Sep-12 13:28S 29°52' E 031°02'0 0.0
2017-Sep-12 12:58S 29°52' E 031°02'0 0.0
2017-Sep-12 12:28S 29°52' E 031°02'0 0.0
2017-Sep-12 12:01S 29°52' E 031°02'0 0.0
2017-Sep-12 11:28S 29°52' E 031°02'0 0.1
2017-Sep-12 11:00S 29°52' E 031°02'2 5.0
2017-Sep-12 10:31S 29°51' E 031°04'2 3.9
2017-Sep-12 10:00S 29°49' E 031°06'5 9.3
2017-Sep-12 09:30S 29°49' E 031°11'612.4
2017-Sep-12 09:00S 29°50' E 031°18'612.9
2017-Sep-12 08:31S 29°50' E 031°25'713.5
2017-Sep-12 08:00S 29°51' E 031°33'714.5
2017-Sep-12 07:30S 29°51' E 031°42'714.8
2017-Sep-12 07:00S 29°51' E 031°50'714.7
2017-Sep-12 06:30S 29°51' E 031°59'714.3
2017-Sep-12 06:00S 29°50' E 032°07'713.7
2017-Sep-12 05:30S 29°50' E 032°15'713.5
2017-Sep-12 04:59S 29°50' E 032°23'613.1
2017-Sep-12 04:30S 29°50' E 032°30'613.1
2017-Sep-12 04:00S 29°50' E 032°38'712.8
2017-Sep-12 03:27S 29°50' E 032°46'511.9
2017-Sep-12 03:00S 29°50' E 032°52'712.8
2017-Sep-12 02:26S 29°51' E 033°00'612.5
2017-Sep-12 01:54S 29°50' E 033°08'1712.1
2017-Sep-12 00:29S 29°51' E 033°28'611.9
2017-Sep-11 23:58S 29°51' E 033°35'511.9
2017-Sep-11 23:30S 29°50' E 033°41'812.0
2017-Sep-11 22:50S 29°50' E 033°50'3213.2
2017-Sep-11 20:26S 29°50' E 034°27'913.2
2017-Sep-11 19:43S 29°51' E 034°38'  

Dump ship's entire track history